Terminal Aerodrome Forecast
Issued by NWS

Home | Current Version | Previous Version | Text Only | Print | Product List | Glossary On
Versions: 1 2 3 4 5 6 7 8 9 10 11 12 13 14
000
FTUS42 KTAE 262321
TAFDHN
TAF
KDHN 262321Z 2700/2724 22005KT P6SM BKN080
     FM270900 15003KT 3SM BR SCT005
     FM271000 14003KT 1SM BR BKN004
     FM271400 18010KT P6SM SCT025=

USA.gov is the U.S. government's official web portal to all federal, state and local government web resources and services.